Time;durP1;ratioP1;P1;durP2;ratioP2;P2;SDS_P1;SDS_P2;PMS_P1;PMS_P2;Temp;Humidity;BMP_temperature;BMP_pressure;BME280_temperature;BME280_humidity;BME280_pressure;Samples;Min_cycle;Max_cycle;Signal;HPM_P1;HPM_P2
2022/01/14 00:01:46;;;;;;;53.27;27.13;;;-1.30;99.90;;;-3.06;98.69;99987.31;5093993;28;20464;-67
2022/01/14 00:04:13;;;;;;;65.13;27.90;;;-1.30;99.90;;;-3.16;99.39;99992.22;5075486;28;20935;-66
2022/01/14 00:06:41;;;;;;;65.20;29.10;;;-1.40;99.90;;;-3.07;99.47;99988.25;5093802;28;20429;-66
2022/01/14 00:09:11;;;;;;;53.97;27.93;;;-1.40;99.90;;;-3.12;99.13;99991.13;5093752;28;20551;-66
2022/01/14 00:11:44;;;;;;;68.67;29.27;;;-1.40;99.90;;;-3.12;99.31;99988.47;5092782;28;20432;-66
2022/01/14 00:14:21;;;;;;;69.83;29.97;;;-1.40;99.90;;;-3.08;99.10;99983.88;5094189;28;20481;-65
2022/01/14 00:16:49;;;;;;;56.53;26.77;;;-1.40;99.90;;;-3.15;99.58;99976.25;5093175;28;20465;-67
2022/01/14 00:19:17;;;;;;;61.87;28.07;;;-1.40;99.90;;;-3.25;99.50;99979.47;5093609;28;20436;-67
2022/01/14 00:21:45;;;;;;;66.17;28.30;;;-1.50;99.90;;;-3.32;100.00;99968.34;5093681;28;20446;-66
2022/01/14 00:24:25;;;;;;;62.20;29.13;;;-1.50;99.90;;;-3.25;99.90;99974.16;5094313;28;20440;-67
2022/01/14 00:32:30;;;;;;;56.90;26.87;;;-1.50;99.90;;;-3.22;100.00;99977.53;5092001;28;21057;-67
2022/01/14 00:34:57;;;;;;;59.93;27.00;;;-1.50;99.90;;;-3.22;100.00;99959.00;5094434;28;20435;-66
2022/01/14 00:37:24;;;;;;;60.97;26.50;;;-1.50;99.90;;;-3.21;100.00;99955.44;5075501;28;20470;-67
2022/01/14 00:39:52;;;;;;;62.27;27.40;;;-1.50;99.90;;;-3.33;100.00;99962.22;5075289;28;20444;-66
2022/01/14 00:42:19;;;;;;;57.70;26.40;;;-1.50;99.90;;;-3.31;100.00;99955.06;5074996;28;20447;-67
2022/01/14 00:44:46;;;;;;;63.97;28.07;;;-1.50;99.90;;;-3.32;100.00;99948.06;5093670;28;20543;-67
2022/01/14 00:47:13;;;;;;;62.90;29.07;;;-1.60;99.90;;;-3.24;100.00;99955.59;5075220;28;20440;-66
2022/01/14 00:49:40;;;;;;;68.00;28.10;;;-1.50;99.90;;;-3.24;100.00;99960.88;5093355;28;20464;-67
2022/01/14 00:52:07;;;;;;;63.50;27.87;;;-1.50;99.90;;;-3.18;100.00;99944.69;5091981;28;20531;-67
2022/01/14 00:54:34;;;;;;;67.13;27.37;;;-1.40;99.90;;;-3.08;100.00;99950.34;5091667;28;20523;-66
2022/01/14 00:57:15;;;;;;;66.60;29.37;;;-1.40;99.90;;;-3.09;100.00;99953.94;5093283;28;20438;-66
2022/01/14 00:59:41;;;;;;;60.20;27.00;;;-1.40;99.90;;;-3.19;100.00;99942.97;5058030;28;20452;-66
2022/01/14 01:02:10;;;;;;;65.07;27.60;;;-1.40;99.90;;;-3.23;100.00;99941.44;5052607;28;20504;-66
2022/01/14 01:04:39;;;;;;;65.83;31.07;;;-1.50;99.90;;;-3.21;100.00;99944.84;5033622;28;20820;-68
2022/01/14 01:07:09;;;;;;;65.07;27.53;;;-1.50;99.90;;;-3.11;100.00;99944.34;5052687;28;20434;-73
2022/01/14 01:09:45;;;;;;;55.97;26.83;;;-1.40;99.90;;;-3.21;100.00;99926.34;5051543;28;20832;-74
2022/01/14 01:12:17;;;;;;;65.43;29.60;;;-1.40;99.90;;;-3.28;100.00;99928.44;5052511;28;20438;-74
2022/01/14 01:14:50;;;;;;;58.80;26.63;;;-1.50;99.90;;;-3.23;100.00;99930.88;5036023;28;20462;-74
2022/01/14 01:17:18;;;;;;;63.77;26.90;;;-1.50;99.90;;;-3.14;100.00;99927.72;5053215;28;20434;-74
2022/01/14 01:19:46;;;;;;;57.93;28.13;;;-1.40;99.90;;;-3.16;100.00;99924.31;5053540;28;20533;-74
2022/01/14 01:22:13;;;;;;;58.33;27.60;;;-1.50;99.90;;;-3.14;100.00;99922.44;5051546;28;20635;-74
2022/01/14 01:24:40;;;;;;;55.70;26.73;;;-1.40;99.90;;;-3.22;100.00;99911.41;5053145;28;20905;-74
2022/01/14 01:27:09;;;;;;;67.40;29.60;;;-1.40;99.90;;;-3.14;100.00;99918.94;5053142;28;20522;-74
2022/01/14 01:29:50;;;;;;;65.47;28.43;;;-1.40;99.90;;;-3.13;100.00;99915.38;5038217;28;20507;-74
2022/01/14 01:32:17;;;;;;;57.90;26.20;;;-1.40;99.90;;;-3.17;100.00;99919.94;5039414;28;20496;-73
2022/01/14 01:34:44;;;;;;;56.57;26.90;;;-1.50;99.90;;;-3.17;100.00;99919.94;5039178;28;20442;-75
2022/01/14 01:37:11;;;;;;;59.53;26.97;;;-1.50;99.90;;;-3.64;99.66;99836.06;5056733;28;20516;-74
2022/01/14 01:39:38;;;;;;;58.57;26.97;;;-1.50;99.90;;;-3.20;99.31;99904.25;5038676;28;20445;-74
2022/01/14 01:42:09;;;;;;;55.57;24.00;;;-1.50;99.90;;;-3.36;99.59;99908.63;5038710;28;20446;-73
2022/01/14 01:44:40;;;;;;;46.60;22.27;;;-1.60;99.90;;;-3.42;99.89;99901.88;5055745;28;20492;-74
2022/01/14 01:47:08;;;;;;;53.30;24.33;;;-1.70;99.90;;;-3.58;100.00;99900.03;5038431;28;20975;-73
2022/01/14 01:49:38;;;;;;;49.10;23.07;;;-1.80;99.90;;;-3.65;100.00;99895.13;5038407;28;20466;-73
2022/01/14 01:52:06;;;;;;;62.70;26.80;;;-1.90;99.90;;;-3.66;100.00;99896.06;5056428;28;20445;-74
2022/01/14 01:54:34;;;;;;;59.87;26.50;;;-1.90;99.90;;;-3.92;100.00;99837.47;5056957;28;20434;-74
2022/01/14 01:57:01;;;;;;;53.40;24.30;;;-1.90;99.90;;;-3.67;100.00;99874.06;5056205;28;20438;-73
2022/01/14 01:59:30;;;;;;;51.97;25.63;;;-1.90;99.90;;;-3.64;100.00;99868.66;5038451;28;20811;-74
2022/01/14 02:02:00;;;;;;;58.80;24.00;;;-1.90;99.90;;;-3.52;100.00;99879.50;5056671;28;20441;-74
2022/01/14 02:04:29;;;;;;;48.47;22.93;;;-1.80;99.90;;;-3.73;99.76;99864.66;5056294;28;20757;-74
2022/01/14 02:06:57;;;;;;;58.90;24.50;;;-1.80;99.90;;;-3.61;100.00;99883.47;5054883;28;20442;-73
2022/01/14 02:09:25;;;;;;;57.80;25.83;;;-1.90;99.90;;;-3.80;100.00;99868.56;5038459;28;20874;-73
2022/01/14 02:11:52;;;;;;;56.37;24.50;;;-1.90;99.90;;;-3.65;100.00;99863.44;5056092;28;20949;-73
2022/01/14 02:14:52;;;;;;;54.50;23.73;;;-1.80;99.90;;;-3.67;99.65;99863.50;5054418;28;20976;-74
2022/01/14 02:17:32;;;;;;;49.93;24.07;;;-1.90;99.90;;;-3.69;99.58;99865.38;5038245;28;20434;-74
2022/01/14 02:22:48;;;;;;;48.30;23.90;;;-1.80;99.90;;;-3.50;99.06;99881.13;5019665;28;20917;-75
2022/01/14 02:25:16;;;;;;;49.87;23.70;;;-1.80;99.90;;;-3.60;99.32;99879.88;5037711;28;20477;-75
2022/01/14 02:27:44;;;;;;;51.93;24.10;;;-1.90;99.90;;;-3.72;99.19;99861.09;5057400;28;20518;-74
2022/01/14 02:30:12;;;;;;;51.37;24.60;;;-1.90;99.90;;;-3.66;99.06;99867.00;5063180;28;20466;-72
2022/01/14 02:32:40;;;;;;;47.70;25.27;;;-1.90;99.90;;;-3.57;99.54;99863.88;5051097;28;20517;-76
2022/01/14 02:35:10;;;;;;;62.50;26.30;;;-1.90;99.90;;;-3.54;98.86;99858.44;5068028;28;20441;-76
2022/01/14 02:37:37;;;;;;;46.50;23.40;;;-1.80;99.90;;;-3.66;98.80;99843.22;5037704;28;20445;-75
2022/01/14 02:40:06;;;;;;;53.37;26.00;;;-1.80;99.90;;;-3.56;98.88;99860.31;5054873;28;20520;-74
2022/01/14 02:42:33;;;;;;;53.27;24.60;;;-1.80;99.90;;;-3.46;98.67;99850.13;5037553;28;20525;-73
2022/01/14 02:45:05;;;;;;;46.87;23.40;;;-1.80;99.90;;;-3.50;98.70;99854.69;5038136;28;20906;-75
2022/01/14 02:47:32;;;;;;;49.20;25.83;;;-1.80;99.90;;;-3.52;98.83;99846.00;5057420;28;20440;-75
2022/01/14 02:49:59;;;;;;;48.90;24.47;;;-1.80;99.90;;;-3.50;99.25;99844.13;5063680;28;20458;-74
2022/01/14 02:52:41;;;;;;;50.10;24.07;;;-1.80;99.90;;;-3.59;98.79;99841.94;5056791;28;20484;-75
2022/01/14 02:55:18;;;;;;;49.30;23.87;;;-1.80;99.90;;;-3.54;98.43;99858.44;5038084;28;20454;-75
2022/01/14 02:57:47;;;;;;;52.50;24.30;;;-1.80;99.90;;;-3.50;98.26;99860.00;5055189;28;20446;-75
2022/01/14 03:00:18;;;;;;;43.77;23.13;;;-1.80;99.90;;;-3.57;98.64;99845.38;5055163;28;20440;-74
2022/01/14 03:02:48;;;;;;;49.17;24.50;;;-1.80;99.90;;;-3.68;99.01;99839.81;5053844;28;20438;-75
2022/01/14 03:05:17;;;;;;;47.33;25.10;;;-1.90;99.90;;;-3.61;98.82;99839.41;5053929;28;20450;-73
2022/01/14 03:07:49;;;;;;;46.13;22.70;;;-1.90;99.90;;;-3.67;98.70;99842.34;5037775;28;20438;-73
2022/01/14 03:10:19;;;;;;;50.77;24.43;;;-1.90;99.90;;;-3.87;98.52;99793.19;5055153;28;20542;-74
2022/01/14 03:12:48;;;;;;;50.23;22.23;;;-1.90;99.90;;;-3.62;98.73;99836.84;5054786;28;20438;-74
2022/01/14 03:15:16;;;;;;;53.30;24.60;;;-1.90;99.90;;;-3.59;98.77;99839.31;5055801;28;20450;-73
2022/01/14 03:17:43;;;;;;;45.20;21.87;;;-1.90;99.90;;;-3.68;98.39;99829.25;5054063;28;20499;-74
2022/01/14 03:20:28;;;;;;;39.73;21.47;;;-1.90;99.90;;;-3.60;98.17;99821.75;5036500;28;20529;-73
2022/01/14 03:23:04;;;;;;;45.73;24.70;;;-1.90;99.90;;;-3.72;98.18;99816.16;5055297;28;20572;-74
2022/01/14 03:25:48;;;;;;;42.23;22.13;;;-1.90;99.90;;;-3.63;98.72;99817.50;5053102;28;20434;-73
2022/01/14 03:28:17;;;;;;;39.50;20.70;;;-1.90;99.90;;;-3.56;98.62;99810.09;5055598;28;20450;-75
2022/01/14 03:30:44;;;;;;;52.30;24.60;;;-1.90;99.90;;;-3.62;98.34;99807.78;5054611;28;20462;-74
2022/01/14 03:33:11;;;;;;;43.00;22.73;;;-1.90;99.90;;;-3.63;98.62;99796.38;5036339;28;20473;-75
2022/01/14 03:35:38;;;;;;;45.20;23.27;;;-1.90;99.90;;;-4.13;98.58;99729.41;5036837;28;20434;-75
2022/01/14 03:38:07;;;;;;;41.10;21.77;;;-1.90;99.90;;;-3.57;98.11;99795.16;5055402;28;20445;-74
2022/01/14 03:40:34;;;;;;;50.20;24.83;;;-1.90;99.90;;;-3.76;98.34;99796.13;5036469;28;20527;-74
2022/01/14 03:43:01;;;;;;;51.07;21.97;;;-1.90;99.90;;;-3.80;98.52;99778.75;5052480;28;20450;-74
2022/01/14 03:45:28;;;;;;;44.23;23.77;;;-1.90;99.90;;;-3.81;98.46;99792.03;5054284;28;20521;-74
2022/01/14 03:47:55;;;;;;;45.63;23.03;;;-2.00;99.90;;;-3.79;98.47;99793.66;5054198;28;20474;-74
2022/01/14 03:50:22;;;;;;;55.87;25.60;;;-2.00;99.90;;;-3.73;97.94;99795.97;5054169;28;20557;-75
2022/01/14 03:52:49;;;;;;;40.53;22.53;;;-2.00;99.90;;;-3.71;98.06;99794.13;5054549;28;20484;-74
2022/01/14 03:55:17;;;;;;;47.40;22.80;;;-2.00;99.90;;;-3.62;97.76;99797.19;5054280;28;20442;-74
2022/01/14 03:57:44;;;;;;;49.50;23.27;;;-2.00;99.90;;;-3.70;97.70;99798.47;5053973;28;20817;-73
2022/01/14 04:00:12;;;;;;;39.07;22.07;;;-2.00;99.90;;;-3.76;97.81;99788.22;5053840;28;20477;-73
2022/01/14 04:02:39;;;;;;;40.20;22.47;;;-2.00;99.90;;;-3.63;97.68;99799.00;5066986;28;20438;-72
2022/01/14 04:05:08;;;;;;;43.93;22.63;;;-1.90;99.90;;;-4.11;97.44;99743.38;5068539;28;20489;-72
2022/01/14 04:07:35;;;;;;;43.73;23.03;;;-2.00;99.90;;;-3.70;97.73;99808.16;5057238;28;20533;-73
2022/01/14 04:10:03;;;;;;;44.37;22.50;;;-2.00;99.90;;;-3.72;97.26;99804.75;5054134;28;20801;-73
2022/01/14 04:12:44;;;;;;;50.93;22.80;;;-2.00;99.90;;;-3.75;97.54;99808.41;5036825;28;20431;-73
2022/01/14 04:17:58;;;;;;;46.07;21.87;;;-2.00;99.90;;;-3.78;97.36;99805.94;5053928;28;20437;-71
2022/01/14 04:20:26;;;;;;;43.20;24.10;;;-2.00;99.90;;;-3.86;97.08;99795.75;5054139;28;20460;-72
2022/01/14 04:22:53;;;;;;;42.73;23.00;;;-2.00;99.90;;;-3.77;97.16;99799.72;5054586;28;20434;-74
2022/01/14 04:25:21;;;;;;;42.90;22.70;;;-2.00;99.90;;;-3.85;97.25;99804.56;5036207;28;20447;-73
2022/01/14 04:27:49;;;;;;;47.47;23.47;;;-2.00;99.90;;;-3.85;97.29;99799.28;5036325;28;20940;-74
2022/01/14 04:30:17;;;;;;;41.43;23.00;;;-2.00;99.90;;;-3.84;97.55;99809.75;5053330;28;20462;-75
2022/01/14 04:32:44;;;;;;;47.50;23.43;;;-2.10;99.90;;;-3.87;97.74;99809.03;5051938;28;20438;-75
2022/01/14 04:35:11;;;;;;;41.93;20.80;;;-2.10;99.90;;;-3.92;97.52;99789.94;5053362;28;20434;-75
2022/01/14 04:37:39;;;;;;;40.03;21.37;;;-2.10;99.90;;;-3.97;97.62;99798.09;5053851;28;20968;-75
2022/01/14 04:40:08;;;;;;;45.03;21.90;;;-2.10;99.90;;;-3.88;97.45;99802.91;5036200;28;20446;-75
2022/01/14 04:42:36;;;;;;;42.60;20.80;;;-2.20;99.90;;;-3.85;97.52;99804.56;5052324;28;20953;-75
2022/01/14 04:45:06;;;;;;;41.20;20.53;;;-2.20;99.90;;;-3.90;97.32;99803.91;5035728;28;20920;-75
2022/01/14 04:47:44;;;;;;;32.37;19.77;;;-2.20;99.90;;;-3.83;97.05;99794.75;5053556;28;20434;-74
2022/01/14 04:50:13;;;;;;;40.33;21.23;;;-2.10;99.90;;;-3.96;97.31;99794.53;5035852;28;20828;-75
2022/01/14 04:52:41;;;;;;;37.17;20.90;;;-2.20;99.90;;;-4.10;97.74;99797.88;5053663;28;20434;-75
2022/01/14 04:55:10;;;;;;;35.93;21.40;;;-2.30;99.90;;;-3.97;97.71;99802.53;5053634;28;20586;-74
2022/01/14 04:57:37;;;;;;;40.50;21.43;;;-2.30;99.90;;;-4.02;97.90;99790.44;5052151;28;20528;-75
2022/01/14 05:00:10;;;;;;;48.57;23.20;;;-2.30;99.90;;;-3.99;98.06;99792.03;5053477;28;20466;-75
2022/01/14 05:02:37;;;;;;;40.63;19.13;;;-2.30;99.90;;;-4.18;98.46;99790.34;5036431;28;20787;-75
2022/01/14 05:05:05;;;;;;;40.03;21.53;;;-2.40;99.90;;;-4.17;98.84;99785.91;5037789;28;20501;-74
2022/01/14 05:07:32;;;;;;;43.57;23.00;;;-2.40;99.90;;;-4.12;99.06;99794.47;5056394;28;20537;-74
2022/01/14 05:10:15;;;;;;;46.73;23.00;;;-2.40;99.90;;;-4.02;98.61;99795.72;5057119;28;20465;-75
2022/01/14 05:12:43;;;;;;;41.00;21.37;;;-2.40;99.90;;;-3.95;98.39;99792.75;5039811;28;20541;-74
2022/01/14 05:15:13;;;;;;;42.97;22.50;;;-2.30;99.90;;;-4.07;98.52;99787.16;5039250;28;20932;-75
2022/01/14 05:17:40;;;;;;;44.03;22.20;;;-2.30;99.90;;;-4.12;98.86;99781.25;5056818;28;20532;-75
2022/01/14 05:20:09;;;;;;;38.07;21.40;;;-2.40;99.90;;;-3.96;98.74;99783.13;5039432;28;20466;-74
2022/01/14 05:22:37;;;;;;;42.50;21.40;;;-2.30;99.90;;;-4.01;98.34;99773.66;5038883;28;20533;-74
2022/01/14 05:25:05;;;;;;;40.97;21.53;;;-2.30;99.90;;;-4.06;98.18;99782.75;5039159;28;20842;-74
2022/01/14 05:27:32;;;;;;;39.37;21.20;;;-2.30;99.90;;;-4.16;98.43;99762.09;5057185;28;20480;-76
2022/01/14 05:29:59;;;;;;;44.23;22.43;;;-2.30;99.90;;;-3.84;98.02;99777.19;5055158;28;20918;-75
2022/01/14 05:32:28;;;;;;;42.93;21.63;;;-2.20;99.90;;;-3.89;97.72;99787.13;5055355;28;20450;-76
2022/01/14 05:34:55;;;;;;;43.23;21.53;;;-2.20;99.90;;;-3.99;97.64;99761.22;5055635;28;20539;-77
2022/01/14 05:37:22;;;;;;;35.17;19.03;;;-2.20;99.90;;;-3.87;97.50;99772.94;5056380;28;20446;-76
2022/01/14 05:39:49;;;;;;;37.60;21.50;;;-2.20;99.90;;;-3.89;97.61;99771.28;5058534;28;20926;-80
2022/01/14 05:42:16;;;;;;;38.00;20.57;;;-2.20;99.90;;;-3.81;97.30;99766.47;5061179;28;20484;-84
2022/01/14 05:44:43;;;;;;;39.10;20.77;;;-2.10;99.90;;;-3.75;96.31;99766.13;5057912;28;20462;-77
2022/01/14 05:47:10;;;;;;;34.60;18.97;;;-2.00;99.90;;;-3.77;96.80;99760.09;5038808;28;20438;-72
2022/01/14 05:49:38;;;;;;;41.03;21.60;;;-2.10;99.90;;;-3.69;95.92;99764.97;5056790;28;20511;-72
2022/01/14 05:52:06;;;;;;;40.60;20.40;;;-2.00;98.70;;;-3.77;96.57;99761.88;5056529;28;20557;-72
2022/01/14 05:54:33;;;;;;;41.10;21.00;;;-2.00;99.10;;;-3.64;96.05;99751.50;5054832;28;20465;-73
2022/01/14 05:57:00;;;;;;;38.07;20.17;;;-1.90;98.50;;;-3.80;96.11;99736.47;5038456;28;20521;-72
2022/01/14 05:59:27;;;;;;;39.77;19.60;;;-2.00;97.20;;;-3.69;95.95;99741.19;5057215;28;20525;-77
2022/01/14 06:01:54;;;;;;;39.43;19.03;;;-2.00;99.00;;;-3.70;95.47;99750.91;5047563;28;20488;-73
2022/01/14 06:04:21;;;;;;;37.20;19.90;;;-2.00;96.90;;;-3.70;95.54;99752.69;5070447;28;20438;-72
2022/01/14 06:06:49;;;;;;;35.97;21.47;;;-2.00;97.50;;;-3.71;95.74;99749.22;5057916;28;20905;-72
2022/01/14 06:09:16;;;;;;;37.90;20.87;;;-2.00;97.10;;;-3.76;95.36;99751.22;5055462;28;20470;-72
2022/01/14 06:11:43;;;;;;;31.70;19.07;;;-2.00;96.60;;;-3.71;95.01;99753.63;5038271;28;20523;-73
2022/01/14 06:14:10;;;;;;;39.37;21.23;;;-2.00;97.20;;;-3.72;95.01;99739.53;5038006;28;20434;-74
2022/01/14 06:16:37;;;;;;;34.30;19.93;;;-1.90;96.40;;;-3.73;95.51;99748.41;5054345;28;20446;-75
2022/01/14 06:19:04;;;;;;;35.77;20.13;;;-2.00;96.70;;;-3.81;95.41;99747.97;5057065;28;20449;-74
2022/01/14 06:21:31;;;;;;;38.50;22.17;;;-2.00;96.70;;;-3.84;95.78;99737.59;5055991;28;20952;-72
2022/01/14 06:23:59;;;;;;;37.73;21.70;;;-2.10;97.70;;;-3.70;95.70;99745.63;5063129;28;20909;-72
2022/01/14 06:26:26;;;;;;;43.63;22.30;;;-2.00;97.70;;;-3.53;94.96;99743.88;5038491;28;20451;-73
2022/01/14 06:28:53;;;;;;;39.27;20.60;;;-1.80;97.60;;;-3.27;94.96;99738.94;5037944;28;20442;-74
2022/01/14 06:31:20;;;;;;;35.37;20.37;;;-1.70;99.80;;;-3.39;93.89;99748.38;5055632;28;20466;-80
2022/01/14 06:33:48;;;;;;;35.93;19.50;;;-1.70;95.50;;;-3.40;94.66;99748.50;5055015;28;20464;-68
2022/01/14 06:36:15;;;;;;;41.90;22.30;;;-1.80;96.60;;;-3.50;93.95;99740.19;5055010;28;20537;-69
2022/01/14 06:38:42;;;;;;;38.47;20.87;;;-1.80;95.50;;;-3.59;94.18;99739.75;5055267;28;20537;-67
2022/01/14 06:41:10;;;;;;;38.43;21.40;;;-1.90;94.70;;;-3.70;94.33;99743.00;5055122;28;20513;-68
2022/01/14 06:43:37;;;;;;;39.13;23.50;;;-2.00;94.90;;;-3.67;94.17;99741.94;5054953;28;20466;-68
2022/01/14 06:46:04;;;;;;;34.87;21.27;;;-1.90;95.00;;;-3.70;93.90;99747.41;5036923;28;20525;-68
2022/01/14 06:48:33;;;;;;;36.77;19.70;;;-1.90;95.30;;;-3.92;94.68;99731.84;5054532;28;20503;-68
2022/01/14 06:51:01;;;;;;;38.83;21.17;;;-2.00;94.80;;;-3.76;93.92;99748.56;5037012;28;20466;-66
2022/01/14 06:53:28;;;;;;;36.87;21.60;;;-2.10;95.30;;;-3.88;94.62;99747.44;5037026;28;20744;-66
2022/01/14 06:55:55;;;;;;;36.40;20.00;;;-2.10;94.90;;;-3.94;95.22;99749.56;5054566;28;20528;-67
2022/01/14 06:58:23;;;;;;;35.70;20.37;;;-2.10;95.90;;;-3.94;94.72;99739.00;5054611;28;20533;-66
2022/01/14 07:00:50;;;;;;;33.93;20.20;;;-2.20;95.70;;;-4.01;95.24;99754.31;5054638;28;20525;-65
2022/01/14 07:03:17;;;;;;;43.57;22.50;;;-2.20;96.10;;;-3.94;95.05;99747.78;5054366;28;20438;-66
2022/01/14 07:05:44;;;;;;;40.93;21.47;;;-2.20;96.30;;;-4.00;95.16;99751.59;5036677;28;20541;-65
2022/01/14 07:08:11;;;;;;;39.83;21.47;;;-2.20;96.50;;;-3.96;95.39;99760.19;5054828;28;20448;-65
2022/01/14 07:10:39;;;;;;;36.97;19.80;;;-2.20;96.70;;;-3.80;95.23;99740.88;5041205;28;20564;-65
2022/01/14 07:13:06;;;;;;;35.50;19.90;;;-2.10;98.60;;;-3.76;94.93;99753.03;5069448;28;20463;-65
2022/01/14 07:15:34;;;;;;;38.77;21.33;;;-2.10;97.50;;;-3.77;94.77;99746.88;5049544;28;20543;-64
2022/01/14 07:18:01;;;;;;;37.83;22.10;;;-2.10;96.80;;;-3.79;94.98;99747.88;5067460;28;20507;-66
2022/01/14 07:20:28;;;;;;;41.03;22.23;;;-2.10;96.10;;;-3.72;94.72;99751.91;5065858;28;20564;-64
2022/01/14 07:22:55;;;;;;;41.50;22.10;;;-2.00;96.20;;;-3.67;94.54;99754.31;5068038;28;20457;-71
2022/01/14 07:25:22;;;;;;;38.10;20.13;;;-2.00;96.10;;;-3.68;94.44;99755.25;5054741;28;20632;-79
2022/01/14 07:27:50;;;;;;;34.40;20.00;;;-1.90;95.00;;;-3.81;94.56;99747.97;5070683;28;20964;-79
2022/01/14 07:30:17;;;;;;;32.37;19.90;;;-2.00;94.10;;;-3.67;94.28;99741.13;5072157;28;20438;-78
2022/01/14 07:32:46;;;;;;;37.30;21.97;;;-1.90;95.50;;;-3.57;93.96;99742.31;5036551;28;20517;-79
2022/01/14 07:35:13;;;;;;;36.20;20.30;;;-1.80;94.60;;;-3.63;93.55;99743.50;5053027;28;20533;-79
2022/01/14 07:37:41;;;;;;;36.70;20.10;;;-1.90;93.70;;;-3.65;93.85;99740.06;5036760;28;20442;-79
2022/01/14 07:40:09;;;;;;;33.23;20.47;;;-1.90;94.10;;;-3.62;94.38;99744.34;5053737;28;20985;-80
2022/01/14 07:42:36;;;;;;;35.93;20.33;;;-1.90;94.80;;;-3.60;93.93;99747.75;5057087;28;20473;-81
2022/01/14 07:45:06;;;;;;;31.80;19.47;;;-1.90;94.30;;;-3.59;93.60;99739.75;5055203;28;20926;-76
2022/01/14 07:47:33;;;;;;;39.93;20.37;;;-1.80;93.90;;;-3.61;94.00;99740.78;5055181;28;20466;-78
2022/01/14 07:50:01;;;;;;;37.73;19.70;;;-1.90;94.50;;;-3.50;93.47;99745.47;5054676;28;20446;-79
2022/01/14 07:52:28;;;;;;;34.33;20.33;;;-1.80;94.10;;;-3.57;93.33;99740.53;5069125;28;20498;-78
2022/01/14 07:54:55;;;;;;;38.40;20.20;;;-1.80;93.30;;;-3.34;93.12;99742.84;5070671;28;20449;-79
2022/01/14 07:57:22;;;;;;;35.87;21.90;;;-1.70;93.60;;;-3.30;92.17;99744.38;5039213;28;20469;-78
2022/01/14 07:59:49;;;;;;;36.77;21.93;;;-1.60;92.50;;;-3.15;91.80;99732.97;5054240;28;20993;-79
2022/01/14 08:02:18;;;;;;;33.50;20.17;;;-1.50;92.00;;;-3.25;91.76;99736.22;5053982;28;20476;-80
2022/01/14 08:04:47;;;;;;;37.90;21.30;;;-1.50;91.40;;;-3.20;91.48;99729.72;5054164;28;20541;-79
2022/01/14 08:07:21;;;;;;;35.00;20.67;;;-1.50;91.60;;;-3.09;91.96;99742.34;5054070;28;20441;-79
2022/01/14 08:09:49;;;;;;;37.23;20.33;;;-1.40;91.70;;;-3.07;91.32;99739.63;5054462;28;20445;-80
2022/01/14 08:12:16;;;;;;;39.20;21.60;;;-1.40;91.40;;;-3.51;91.59;99678.56;5048062;28;20492;-78
2022/01/14 08:14:43;;;;;;;37.77;20.10;;;-1.40;91.30;;;-3.12;91.41;99753.09;5082997;28;20905;-78
2022/01/14 08:17:11;;;;;;;39.50;23.40;;;-1.40;91.10;;;-2.96;90.95;99753.09;5092151;28;20437;-78
2022/01/14 08:19:38;;;;;;;52.50;22.10;;;-1.30;91.60;;;-2.92;91.21;99749.34;5087704;28;20441;-77
2022/01/14 08:22:08;;;;;;;38.20;22.87;;;-1.30;91.50;;;-2.85;90.69;99755.16;5083826;28;20437;-79
2022/01/14 08:24:37;;;;;;;37.33;22.70;;;-1.20;90.80;;;-3.04;90.66;99755.31;5092330;28;20445;-78
2022/01/14 08:27:07;;;;;;;40.63;23.40;;;-1.30;90.10;;;-2.92;90.77;99756.41;5083417;28;20440;-78
2022/01/14 08:29:34;;;;;;;37.63;22.73;;;-1.30;90.50;;;-2.87;89.89;99752.56;5075014;28;20437;-77
2022/01/14 08:32:01;;;;;;;37.93;22.07;;;-1.20;90.10;;;-2.82;89.85;99751.44;5072781;28;20465;-79
2022/01/14 08:34:29;;;;;;;43.47;25.17;;;-1.20;89.50;;;-2.64;89.34;99745.13;5074944;28;20919;-74
2022/01/14 08:36:56;;;;;;;42.30;24.40;;;-1.10;90.10;;;-2.49;88.98;99739.88;5072109;28;20472;-76
2022/01/14 08:39:23;;;;;;;35.83;21.97;;;-1.00;89.60;;;-2.52;89.05;99734.75;5073012;28;20444;-75
2022/01/14 08:41:51;;;;;;;35.90;21.97;;;-0.90;88.80;;;-2.58;89.06;99734.19;5055930;28;20486;-75
2022/01/14 08:44:18;;;;;;;34.50;20.10;;;-0.90;88.70;;;-2.42;88.26;99720.03;5073178;28;20747;-75
2022/01/14 08:46:45;;;;;;;40.53;22.60;;;-0.80;88.20;;;-2.36;88.61;99737.38;5073931;28;20504;-75
2022/01/14 08:49:12;;;;;;;34.83;22.97;;;-0.80;87.60;;;-2.47;88.57;99740.66;5056327;28;20528;-76
2022/01/14 08:51:39;;;;;;;37.77;22.70;;;-0.80;87.20;;;-2.31;88.23;99738.81;5073575;28;20972;-75
2022/01/14 08:54:08;;;;;;;43.30;23.00;;;-0.80;87.70;;;-2.25;87.80;99739.38;5056105;28;20480;-74
2022/01/14 08:56:36;;;;;;;35.90;22.10;;;-0.60;86.50;;;-2.42;87.94;99727.97;5065901;28;20576;-75
2022/01/14 08:59:05;;;;;;;36.93;21.67;;;-0.70;86.30;;;-2.15;88.08;99735.25;5056269;28;20796;-76
2022/01/14 09:01:32;;;;;;;33.70;20.97;;;-0.60;87.60;;;-1.95;87.20;99741.13;5073517;28;20481;-76
2022/01/14 09:04:01;;;;;;;39.37;22.77;;;-0.40;86.80;;;-1.87;86.23;99744.19;5073309;28;20800;-74
2022/01/14 09:06:28;;;;;;;35.43;22.70;;;-0.30;84.30;;;-1.94;85.83;99733.09;5073790;28;20541;-76
2022/01/14 09:08:56;;;;;;;36.53;22.27;;;-0.30;83.80;;;-1.71;85.70;99737.00;5073451;28;20444;-76
2022/01/14 09:11:23;;;;;;;39.40;22.03;;;-0.20;84.30;;;-1.59;84.85;99726.56;5056456;28;20472;-75
2022/01/14 09:13:50;;;;;;;34.63;21.73;;;-0.10;83.40;;;-1.67;85.09;99728.84;5038962;28;20484;-76
2022/01/14 09:16:20;;;;;;;37.70;22.30;;;0.00;82.80;;;-1.59;85.37;99734.53;5072768;28;20499;-75
2022/01/14 09:18:47;;;;;;;35.33;21.60;;;0.00;83.20;;;-1.53;84.98;99735.94;5055780;28;20445;-75
2022/01/14 09:21:15;;;;;;;40.50;23.33;;;0.10;82.60;;;-1.21;84.44;99736.56;5072057;28;20498;-81
2022/01/14 09:23:50;;;;;;;37.67;22.47;;;0.20;82.40;;;-1.26;83.39;99736.00;5075387;28;20821;-82
2022/01/14 09:26:17;;;;;;;32.90;20.80;;;0.30;81.60;;;-1.31;83.97;99724.81;5074191;28;20490;-81
2022/01/14 09:28:44;;;;;;;34.70;21.57;;;0.30;81.50;;;-1.27;84.13;99734.31;5056662;28;20939;-81
2022/01/14 09:31:11;;;;;;;36.67;20.80;;;0.40;81.40;;;-1.08;83.67;99741.91;5055339;28;20529;-82
2022/01/14 09:33:41;;;;;;;33.87;21.57;;;0.40;81.60;;;-1.01;83.03;99740.59;5056247;28;20504;-82
2022/01/14 09:36:08;;;;;;;36.13;22.20;;;0.60;81.10;;;-0.97;82.55;99749.22;5080180;28;20441;-83
2022/01/14 09:38:35;;;;;;;30.80;22.03;;;0.60;79.90;;;-1.10;83.69;99746.47;5080790;28;20496;-80
2022/01/14 09:41:02;;;;;;;35.53;22.20;;;0.50;80.10;;;-0.94;83.08;99750.78;5076493;28;20446;-78
2022/01/14 09:43:36;;;;;;;31.67;20.50;;;0.60;79.70;;;-0.88;82.92;99745.13;5074620;28;20970;-80
2022/01/14 09:46:04;;;;;;;34.17;22.30;;;0.70;80.20;;;-0.81;82.43;99757.00;5077098;28;20433;-80
2022/01/14 09:48:31;;;;;;;35.00;22.47;;;0.70;79.80;;;-0.63;81.22;99744.34;5082422;28;20438;-79
2022/01/14 09:51:01;;;;;;;33.43;20.70;;;0.80;79.10;;;-0.62;nan;99738.09;5076264;28;20481;-80
2022/01/14 09:53:29;;;;;;;32.77;21.30;;;0.90;79.10;;;-0.66;81.42;99752.53;5072212;28;20492;-80
2022/01/14 09:55:58;;;;;;;37.30;21.03;;;1.00;78.50;;;-0.55;82.46;99756.25;5083278;28;20528;-80
2022/01/14 09:58:27;;;;;;;34.97;21.17;;;1.00;79.50;;;-0.36;81.52;99751.44;5083599;28;20441;-80
2022/01/14 10:01:08;;;;;;;35.80;23.37;;;1.10;78.80;;;-0.39;81.55;99746.31;5081077;28;20437;-80
2022/01/14 10:03:35;;;;;;;32.10;21.00;;;1.10;79.20;;;-0.36;80.94;99735.50;5057009;28;20942;-79
2022/01/14 10:06:04;;;;;;;35.67;20.97;;;1.20;78.50;;;0.01;80.13;99736.59;5065764;28;20454;-81
2022/01/14 10:08:31;;;;;;;32.13;22.23;;;1.30;78.50;;;0.18;79.13;99735.44;5065793;28;20446;-79
2022/01/14 10:11:02;;;;;;;34.20;20.73;;;1.60;77.80;;;0.25;78.84;99729.59;5042196;28;20438;-79
2022/01/14 10:13:32;;;;;;;35.27;22.03;;;1.70;77.00;;;0.37;77.95;99721.69;5044605;28;20467;-79
2022/01/14 10:16:06;;;;;;;33.00;21.57;;;1.80;76.50;;;0.47;77.83;99724.59;5039103;28;20526;-79
2022/01/14 10:18:34;;;;;;;35.47;20.13;;;1.90;76.00;;;0.56;77.62;99711.47;5056315;28;20914;-81
2022/01/14 10:21:07;;;;;;;31.33;19.73;;;2.00;75.70;;;0.58;77.05;99708.69;5055838;28;20466;-81
2022/01/14 10:23:42;;;;;;;32.67;21.33;;;2.10;75.20;;;0.58;77.13;99702.53;5057150;28;20454;-81